Overview Statistics Trail Chart Weather Telemetry Raw packets
 

This is the latest recevied weather packets stored in our database for station/object SP3ZBZ-13. If no packets are shown the sender has not sent any weather packets the latest 10 day(s).

<< 30 31 32 33 34 35 36 >>
Time Temp. Humidity Pressure Rain* Wind** Luminosity Snow
1787897600 16.67° C 66% 1013.6 hPa - - 85 W/m² -
1787896699 16.11° C 66% 1013.4 hPa - - 77 W/m² -
1787895799 16.11° C 66% 1013.7 hPa - - 82 W/m² -
1787894898 15.56° C 67% 1013.6 hPa - - 70 W/m² -
1787893997 15.56° C 67% 1013.7 hPa - - 55 W/m² -
1787893096 15.56° C 66% 1013.8 hPa - - 40 W/m² -
1787892195 16.11° C 67% 1013.7 hPa - - 26 W/m² -
1787891294 15.56° C 66% 1013.5 hPa - - 15 W/m² -
1787890393 15.56° C 66% 1013.7 hPa - - 7 W/m² -
1787889492 15.56° C 65% 1014 hPa - - 2 W/m² -
1787888591 12.78° C 77% 1014 hPa - - 1 W/m² -
1787887689 12.22° C 77% 1014 hPa - - - -
1787886789 11.67° C 83% 1014.1 hPa - - - -
1787885888 12.22° C 80% 1014.3 hPa - - - -
1787884987 12.22° C 81% 1014.3 hPa - - - -
1787884091 12.78° C 79% 1014.5 hPa - - - -
1787883185 12.22° C 80% 1014.7 hPa - - - -
1787882283 13.33° C 77% 1014.7 hPa - - - -
1787881383 15.56° C 66% 1014.7 hPa - - - -
1787880482 16.67° C 64% 1014.6 hPa - - - -
1787879581 16.11° C 65% 1014.6 hPa - - - -
1787878680 16.11° C 64% 1014.7 hPa - - - -
1787877779 16.11° C 65% 1015 hPa - - - -
1787876878 16.67° C 64% 1015.2 hPa - - - -
1787875977 17.22° C 62% 1015.2 hPa - - - -

* Rain since midnight (hover to see other rain measurements)
** Current wind speed in m/s (hover to see current wind gust speed)